createdAt,value
2023-05-22T00:00:31.888Z,101273.16
2023-05-22T00:02:38.674Z,101275.75
2023-05-22T00:04:40.962Z,101263.28
2023-05-22T00:06:43.094Z,101260.72
2023-05-22T00:08:44.738Z,101260.59
2023-05-22T00:10:46.241Z,101257.75
2023-05-22T00:12:47.733Z,101251.38
2023-05-22T00:14:49.300Z,101249.69
2023-05-22T00:16:50.738Z,101255.19
2023-05-22T00:18:52.356Z,101256.91
2023-05-22T00:20:54.312Z,101261.31
2023-05-22T00:22:56.855Z,101260.59
2023-05-22T00:24:58.410Z,101259.72
2023-05-22T00:27:00.032Z,101254.63
2023-05-22T00:29:01.968Z,101243.72
2023-05-22T00:31:03.720Z,101253.50
2023-05-22T00:33:05.264Z,101256.03
2023-05-22T00:35:07.111Z,101259.72
2023-05-22T00:37:08.651Z,101250.81
2023-05-22T00:39:10.226Z,101253.63
2023-05-22T00:41:11.814Z,101258.03
2023-05-22T00:43:13.341Z,101252.50
2023-05-22T00:45:15.152Z,101258.72
2023-05-22T00:47:16.645Z,101256.19
2023-05-22T00:49:18.107Z,101255.19
2023-05-22T00:51:22.778Z,101256.91
2023-05-22T00:53:25.043Z,101264.00
2023-05-22T00:55:26.638Z,101251.63
2023-05-22T00:57:28.186Z,101261.41
2023-05-22T00:59:29.825Z,101257.03
2023-05-22T01:01:33.469Z,101254.22
2023-05-22T01:03:47.841Z,101243.47
2023-05-22T01:05:49.574Z,101242.72
2023-05-22T01:07:51.671Z,101239.06
2023-05-22T01:09:53.164Z,101243.56
2023-05-22T01:12:06.669Z,101243.13
2023-05-22T01:14:10.873Z,101232.91
2023-05-22T01:16:19.002Z,101232.50
2023-05-22T01:18:29.231Z,101244.25
2023-05-22T01:20:48.847Z,101237.63
2023-05-22T01:23:05.854Z,101235.78
2023-05-22T01:25:28.984Z,101235.66
2023-05-22T01:27:35.030Z,101236.63
2023-05-22T01:29:42.254Z,101230.41
2023-05-22T01:31:45.710Z,101238.34
2023-05-22T01:33:48.929Z,101239.31
2023-05-22T01:35:53.843Z,101224.69
2023-05-22T01:37:56.557Z,101230.56
2023-05-22T01:39:58.355Z,101234.22
2023-05-22T01:42:00.300Z,101215.34
2023-05-22T01:44:02.228Z,101230.81
2023-05-22T01:46:04.888Z,101233.50
2023-05-22T01:48:06.617Z,101229.97
2023-05-22T01:50:08.834Z,101237.16
2023-05-22T01:52:12.858Z,101246.38
2023-05-22T01:54:30.322Z,101236.88
2023-05-22T01:56:41.372Z,101241.97
2023-05-22T01:58:58.261Z,101241.84
2023-05-22T02:01:03.584Z,101248.91
2023-05-22T02:03:08.103Z,101244.41
2023-05-22T02:05:11.661Z,101247.94
2023-05-22T02:07:14.460Z,101240.84
2023-05-22T02:09:16.982Z,101238.28
2023-05-22T02:11:20.065Z,101240.00
2023-05-22T02:13:22.264Z,101244.53
2023-05-22T02:15:24.071Z,101242.84
2023-05-22T02:17:26.115Z,101235.16
2023-05-22T02:19:28.110Z,101238.44
2023-05-22T02:21:29.648Z,101236.59
2023-05-22T02:23:31.160Z,101237.47
2023-05-22T02:25:32.725Z,101242.84
2023-05-22T02:27:34.318Z,101241.13
2023-05-22T02:29:36.028Z,101241.38
2023-05-22T02:31:37.815Z,101236.88
2023-05-22T02:33:39.330Z,101237.72
2023-05-22T02:35:40.946Z,101237.13
2023-05-22T02:37:42.587Z,101236.00
2023-05-22T02:39:44.171Z,101232.34
2023-05-22T02:41:45.872Z,101229.63
2023-05-22T02:43:47.364Z,101237.84
2023-05-22T02:45:48.784Z,101232.63
2023-05-22T02:47:50.496Z,101232.47
2023-05-22T02:49:52.030Z,101229.63
2023-05-22T02:51:53.530Z,101227.09
2023-05-22T02:53:55.016Z,101219.88
2023-05-22T02:55:58.896Z,101220.72
2023-05-22T02:58:00.476Z,101230.78
2023-05-22T03:00:02.125Z,101230.63
2023-05-22T03:02:03.870Z,101225.38
2023-05-22T03:04:06.661Z,101231.75
2023-05-22T03:06:08.902Z,101231.75
2023-05-22T03:08:11.066Z,101231.59
2023-05-22T03:10:12.649Z,101238.97
2023-05-22T03:12:14.092Z,101236.28
2023-05-22T03:14:15.577Z,101240.69
2023-05-22T03:16:17.138Z,101237.13
2023-05-22T03:18:18.750Z,101237.28
2023-05-22T03:20:20.303Z,101242.66
2023-05-22T03:22:23.128Z,101243.50
2023-05-22T03:24:24.648Z,101239.97
2023-05-22T03:26:28.264Z,101239.09
2023-05-22T03:28:29.799Z,101231.03
2023-05-22T03:30:35.018Z,101233.84
2023-05-22T03:32:37.863Z,101237.41
2023-05-22T03:34:39.542Z,101233.00
2023-05-22T03:36:41.303Z,101225.78
2023-05-22T03:38:42.765Z,101232.88
2023-05-22T03:40:44.237Z,101233.84
2023-05-22T03:42:45.727Z,101233.84
2023-05-22T03:44:47.280Z,101235.72
2023-05-22T03:46:48.750Z,101228.59
2023-05-22T03:48:50.311Z,101225.06
2023-05-22T03:50:52.085Z,101220.66
2023-05-22T03:52:53.816Z,101227.84
2023-05-22T03:54:55.367Z,101233.25
2023-05-22T03:56:56.916Z,101218.94
2023-05-22T03:58:58.492Z,101228.00
2023-05-22T04:01:01.155Z,101226.28
2023-05-22T04:03:03.602Z,101228.97
2023-05-22T04:05:09.285Z,101240.88
2023-05-22T04:07:13.065Z,101235.63
2023-05-22T04:09:15.091Z,101238.44
2023-05-22T04:11:16.827Z,101241.00
2023-05-22T04:13:18.462Z,101247.09
2023-05-22T04:15:19.960Z,101250.63
2023-05-22T04:17:21.475Z,101251.47
2023-05-22T04:19:23.333Z,101251.47
2023-05-22T04:21:24.809Z,101246.09
2023-05-22T04:23:26.305Z,101248.19
2023-05-22T04:25:27.899Z,101251.03
2023-05-22T04:27:29.768Z,101256.28
2023-05-22T04:29:31.212Z,101251.75
2023-05-22T04:31:33.226Z,101249.06
2023-05-22T04:33:34.867Z,101250.88
2023-05-22T04:35:36.347Z,101253.59
2023-05-22T04:37:38.477Z,101249.91
2023-05-22T04:39:40.380Z,101255.16
2023-05-22T04:41:41.959Z,101257.97
2023-05-22T04:43:44.061Z,101256.16
2023-05-22T04:45:46.294Z,101259.69
2023-05-22T04:47:47.874Z,101265.91
2023-05-22T04:49:49.538Z,101263.22
2023-05-22T04:51:51.191Z,101273.13
2023-05-22T04:53:52.784Z,101262.53
2023-05-22T04:55:54.694Z,101263.34
2023-05-22T04:57:56.355Z,101270.59
2023-05-22T04:59:58.124Z,101266.19
2023-05-22T05:01:59.637Z,101272.41
2023-05-22T05:04:02.259Z,101276.94
2023-05-22T05:06:03.989Z,101282.31
2023-05-22T05:08:05.601Z,101271.56
2023-05-22T05:10:07.526Z,101276.94
2023-05-22T05:12:09.210Z,101272.53
2023-05-22T05:14:10.719Z,101272.53
2023-05-22T05:16:12.394Z,101271.81
2023-05-22T05:18:14.152Z,101277.19
2023-05-22T05:20:15.684Z,101275.50
2023-05-22T05:22:17.202Z,101270.84
2023-05-22T05:24:18.787Z,101276.22
2023-05-22T05:26:21.833Z,101267.56
2023-05-22T05:28:23.388Z,101268.28
2023-05-22T05:30:24.860Z,101263.75
2023-05-22T05:32:26.933Z,101264.03
2023-05-22T05:34:28.510Z,101265.00
2023-05-22T05:36:30.221Z,101267.69
2023-05-22T05:38:31.757Z,101261.59
2023-05-22T05:40:33.336Z,101260.75
2023-05-22T05:42:34.751Z,101260.16
2023-05-22T05:44:36.480Z,101258.22
2023-05-22T05:46:37.959Z,101254.78
2023-05-22T05:48:39.581Z,101263.84
2023-05-22T05:50:41.492Z,101257.34
2023-05-22T05:52:43.132Z,101262.84
2023-05-22T05:54:47.440Z,101264.66
2023-05-22T05:56:48.977Z,101270.34
2023-05-22T05:58:50.612Z,101264.09
2023-05-22T06:00:52.193Z,101261.16
2023-05-22T06:02:53.760Z,101253.09
2023-05-22T06:04:56.039Z,101258.59
2023-05-22T06:06:57.531Z,101249.66
2023-05-22T06:08:59.070Z,101256.03
2023-05-22T06:11:01.133Z,101260.41
2023-05-22T06:13:02.745Z,101254.44
2023-05-22T06:15:05.469Z,101258.13
2023-05-22T06:17:09.125Z,101254.44
2023-05-22T06:19:10.839Z,101261.53
2023-05-22T06:21:12.786Z,101259.00
2023-05-22T06:23:14.276Z,101261.53
2023-05-22T06:25:15.752Z,101257.88
2023-05-22T06:27:17.408Z,101268.47
2023-05-22T06:29:18.897Z,101276.53
2023-05-22T06:31:21.683Z,101275.56
2023-05-22T06:33:23.511Z,101263.09
2023-05-22T06:35:25.425Z,101274.84
2023-05-22T06:37:26.964Z,101275.72
2023-05-22T06:39:29.844Z,101279.13
2023-05-22T06:41:33.615Z,101283.63
2023-05-22T06:43:35.809Z,101278.41
2023-05-22T06:45:38.350Z,101279.38
2023-05-22T06:47:39.877Z,101281.81
2023-05-22T06:49:41.462Z,101278.41
2023-05-22T06:51:43.264Z,101282.78
2023-05-22T06:53:44.738Z,101288.88
2023-05-22T06:55:46.219Z,101294.13
2023-05-22T06:57:47.650Z,101294.13
2023-05-22T06:59:49.240Z,101287.06
2023-05-22T07:01:51.271Z,101290.47
2023-05-22T07:03:57.486Z,101293.16
2023-05-22T07:05:59.516Z,101285.34
2023-05-22T07:08:01.608Z,101286.19
2023-05-22T07:10:03.414Z,101288.63
2023-05-22T07:12:05.534Z,101296.53
2023-05-22T07:14:07.904Z,101287.78
2023-05-22T07:16:12.431Z,101298.53
2023-05-22T07:18:15.793Z,101295.97
2023-05-22T07:20:17.745Z,101292.28
2023-05-22T07:22:19.381Z,101297.53
2023-05-22T07:24:20.833Z,101300.22
2023-05-22T07:26:22.685Z,101302.06
2023-05-22T07:28:24.227Z,101300.63
2023-05-22T07:30:25.755Z,101302.31
2023-05-22T07:32:27.275Z,101299.91
2023-05-22T07:34:33.132Z,101308.41
2023-05-22T07:36:34.887Z,101310.38
2023-05-22T07:38:36.387Z,101312.81
2023-05-22T07:40:38.161Z,101320.88
2023-05-22T07:42:39.912Z,101313.66
2023-05-22T07:44:41.386Z,101322.59
2023-05-22T07:46:43.294Z,101315.50
2023-05-22T07:48:44.977Z,101316.50
2023-05-22T07:50:46.481Z,101316.34
2023-05-22T07:52:47.920Z,101316.09
2023-05-22T07:54:49.469Z,101323.19
2023-05-22T07:56:51.910Z,101327.59
2023-05-22T07:58:53.592Z,101316.69
2023-05-22T08:00:55.902Z,101324.63
2023-05-22T08:02:57.873Z,101324.47
2023-05-22T08:04:59.677Z,101322.53
2023-05-22T08:07:01.662Z,101322.53
2023-05-22T08:09:04.686Z,101317.13
2023-05-22T08:11:06.543Z,101313.47
2023-05-22T08:13:08.701Z,101316.88
2023-05-22T08:15:11.030Z,101312.34
2023-05-22T08:17:13.096Z,101319.31
2023-05-22T08:19:15.123Z,101323.13
2023-05-22T08:21:16.773Z,101328.34
2023-05-22T08:23:19.362Z,101324.97
2023-05-22T08:25:21.260Z,101328.63
2023-05-22T08:27:22.886Z,101323.84
2023-05-22T08:29:24.566Z,101321.16
2023-05-22T08:31:27.902Z,101327.38
2023-05-22T08:33:29.507Z,101322.88
2023-05-22T08:35:31.173Z,101330.06
2023-05-22T08:37:32.745Z,101329.84
2023-05-22T08:39:34.334Z,101326.25
2023-05-22T08:41:35.871Z,101328.00
2023-05-22T08:43:37.402Z,101334.25
2023-05-22T08:45:42.539Z,101330.78
2023-05-22T08:47:44.620Z,101333.38
2023-05-22T08:49:50.478Z,101322.47
2023-05-22T08:51:57.964Z,101327.75
2023-05-22T08:54:01.026Z,101330.53
2023-05-22T08:56:03.744Z,101336.66
2023-05-22T08:58:05.692Z,101318.31
2023-05-22T09:00:07.914Z,101327.75
2023-05-22T09:02:09.906Z,101329.44
2023-05-22T09:04:11.792Z,101335.53
2023-05-22T09:06:13.345Z,101337.97
2023-05-22T09:08:20.549Z,101342.22
2023-05-22T09:10:22.796Z,101333.19
2023-05-22T09:12:25.413Z,101345.66
2023-05-22T09:14:26.877Z,101344.78
2023-05-22T09:16:28.380Z,101343.22
2023-05-22T09:18:30.250Z,101337.69
2023-05-22T09:20:39.122Z,101340.25
2023-05-22T09:22:40.990Z,101339.16
2023-05-22T09:24:43.482Z,101340.13
2023-05-22T09:26:45.074Z,101339.97
2023-05-22T09:28:47.187Z,101350.50
2023-05-22T09:30:52.399Z,101345.25
2023-05-22T09:32:54.827Z,101347.81
2023-05-22T09:35:02.342Z,101345.94
2023-05-22T09:37:04.082Z,101349.38
2023-05-22T09:39:05.650Z,101342.88
2023-05-22T09:41:07.217Z,101346.41
2023-05-22T09:43:12.161Z,101342.72
2023-05-22T09:45:13.794Z,101342.63
2023-05-22T09:47:15.644Z,101345.31
2023-05-22T09:49:17.624Z,101337.22
2023-05-22T09:51:26.481Z,101337.09
2023-05-22T09:53:28.957Z,101332.44
2023-05-22T09:55:32.096Z,101337.81
2023-05-22T09:57:39.902Z,101334.00
2023-05-22T09:59:42.937Z,101338.50
2023-05-22T10:01:47.712Z,101336.56
2023-05-22T10:03:53.013Z,101337.38
2023-05-22T10:05:56.128Z,101333.03
2023-05-22T10:08:02.343Z,101334.59
2023-05-22T10:10:11.412Z,101336.16
2023-05-22T10:12:16.379Z,101337.00
2023-05-22T10:14:18.173Z,101335.03
2023-05-22T10:16:20.218Z,101336.84
2023-05-22T10:18:21.853Z,101335.88
2023-05-22T10:20:24.246Z,101327.69
2023-05-22T10:22:27.972Z,101322.31
2023-05-22T10:24:29.902Z,101327.53
2023-05-22T10:26:31.700Z,101323.97
2023-05-22T10:28:38.405Z,101324.13
2023-05-22T10:30:40.352Z,101329.34
2023-05-22T10:32:45.563Z,101328.66
2023-05-22T10:35:03.143Z,101331.06
2023-05-22T10:37:18.423Z,101329.94
2023-05-22T10:39:33.984Z,101333.91
2023-05-22T10:41:35.627Z,101332.19
2023-05-22T10:43:43.770Z,101331.06
2023-05-22T10:45:46.636Z,101329.25
2023-05-22T10:47:48.193Z,101320.44
2023-05-22T10:49:51.197Z,101316.47
2023-05-22T10:51:55.812Z,101309.28
2023-05-22T10:54:05.467Z,101309.28
2023-05-22T10:56:11.082Z,101308.41
2023-05-22T10:58:12.957Z,101308.28
2023-05-22T11:00:19.282Z,101308.41
2023-05-22T11:02:21.821Z,101303.91
2023-05-22T11:04:25.250Z,101295.97
2023-05-22T11:06:45.976Z,101295.97
2023-05-22T11:08:48.733Z,101297.78
2023-05-22T11:10:54.332Z,101310.13
2023-05-22T11:13:13.984Z,101300.78
2023-05-22T11:15:15.934Z,101280.78
2023-05-22T11:17:21.862Z,101294.38
2023-05-22T11:19:24.208Z,101297.63
2023-05-22T11:21:28.781Z,101295.69
2023-05-22T11:23:33.393Z,101294.28
2023-05-22T11:25:36.479Z,101293.41
2023-05-22T11:27:39.343Z,101292.16
2023-05-22T11:29:41.092Z,101303.91
2023-05-22T11:31:42.874Z,101290.00
2023-05-22T11:33:45.826Z,101289.13
2023-05-22T11:35:48.068Z,101296.81
2023-05-22T11:37:50.248Z,101287.59
2023-05-22T11:39:55.918Z,101291.16
2023-05-22T11:41:57.560Z,101285.50
2023-05-22T11:43:59.502Z,101289.16
2023-05-22T11:46:05.243Z,101293.97
2023-05-22T11:48:08.288Z,101292.16
2023-05-22T11:50:10.563Z,101295.53
2023-05-22T11:52:12.079Z,101296.00
2023-05-22T11:54:13.617Z,101295.13
2023-05-22T11:56:15.372Z,101295.13
2023-05-22T11:58:18.626Z,101296.00
2023-05-22T12:00:20.374Z,101293.41
2023-05-22T12:02:22.023Z,101294.13
2023-05-22T12:04:23.683Z,101294.97
2023-05-22T12:06:25.332Z,101295.72
2023-05-22T12:08:27.068Z,101297.16
2023-05-22T12:10:28.859Z,101294.47
2023-05-22T12:12:30.514Z,101291.19
2023-05-22T12:14:32.031Z,101285.66
2023-05-22T12:16:36.882Z,101288.06
2023-05-22T12:18:38.575Z,101290.06
2023-05-22T12:20:43.780Z,101286.34
2023-05-22T12:22:45.292Z,101287.59
2023-05-22T12:24:46.833Z,101290.59
2023-05-22T12:26:51.905Z,101288.41
2023-05-22T12:28:53.820Z,101290.13
2023-05-22T12:30:55.889Z,101295.78
2023-05-22T12:32:57.933Z,101291.53
2023-05-22T12:34:59.938Z,101287.28
2023-05-22T12:37:01.819Z,101290.81
2023-05-22T12:39:07.119Z,101290.22
2023-05-22T12:41:08.599Z,101292.19
2023-05-22T12:43:10.101Z,101295.75
2023-05-22T12:45:12.284Z,101295.84
2023-05-22T12:47:13.984Z,101293.31
2023-05-22T12:49:15.693Z,101290.75
2023-05-22T12:51:18.644Z,101296.41
2023-05-22T12:53:21.575Z,101290.91
2023-05-22T12:55:23.280Z,101295.56
2023-05-22T12:57:24.842Z,101288.22
2023-05-22T12:59:26.435Z,101284.41
2023-05-22T13:01:28.118Z,101295.41
2023-05-22T13:03:29.736Z,101297.28
2023-05-22T13:05:31.275Z,101291.16
2023-05-22T13:07:33.293Z,101300.66
2023-05-22T13:09:34.960Z,101294.44
2023-05-22T13:11:37.017Z,101285.53
2023-05-22T13:13:38.784Z,101291.88
2023-05-22T13:15:40.729Z,101293.84
2023-05-22T13:17:42.850Z,101283.94
2023-05-22T13:19:44.480Z,101291.88
2023-05-22T13:21:45.952Z,101287.34
2023-05-22T13:23:47.461Z,101283.41
2023-05-22T13:25:49.050Z,101280.16
2023-05-22T13:27:50.592Z,101286.38
2023-05-22T13:29:52.383Z,101277.31
2023-05-22T13:31:53.878Z,101280.41
2023-05-22T13:33:55.497Z,101285.63
2023-05-22T13:35:56.955Z,101285.53
2023-05-22T13:37:58.522Z,101282.09
2023-05-22T13:40:00.028Z,101279.97
2023-05-22T13:42:01.711Z,101280.34
2023-05-22T13:44:03.245Z,101292.69
2023-05-22T13:46:04.921Z,101283.63
2023-05-22T13:48:06.434Z,101287.16
2023-05-22T13:50:08.364Z,101285.59
2023-05-22T13:52:09.873Z,101286.56
2023-05-22T13:54:11.586Z,101291.56
2023-05-22T13:56:13.304Z,101290.13
2023-05-22T13:58:14.771Z,101292.97
2023-05-22T14:00:16.592Z,101292.38
2023-05-22T14:02:20.567Z,101285.16
2023-05-22T14:04:22.454Z,101289.69
2023-05-22T14:06:24.640Z,101289.81
2023-05-22T14:08:26.232Z,101291.38
2023-05-22T14:10:27.722Z,101296.75
2023-05-22T14:12:29.285Z,101294.19
2023-05-22T14:14:30.821Z,101295.19
2023-05-22T14:16:32.431Z,101294.19
2023-05-22T14:18:33.939Z,101297.28
2023-05-22T14:20:35.466Z,101300.94
2023-05-22T14:22:47.993Z,101297.28
2023-05-22T14:24:57.786Z,101294.59
2023-05-22T14:26:59.487Z,101295.31
2023-05-22T14:29:01.200Z,101296.44
2023-05-22T14:31:02.816Z,101296.16
2023-05-22T14:33:04.697Z,101296.31
2023-05-22T14:35:06.523Z,101302.41
2023-05-22T14:37:08.085Z,101296.06
2023-05-22T14:39:12.622Z,101295.31
2023-05-22T14:41:14.140Z,101294.47
2023-05-22T14:43:15.756Z,101295.47
2023-05-22T14:45:17.252Z,101291.06
2023-05-22T14:47:18.757Z,101294.72
2023-05-22T14:49:20.346Z,101298.00
2023-05-22T14:51:22.012Z,101292.63
2023-05-22T14:53:23.590Z,101290.94
2023-05-22T14:55:27.693Z,101290.78
2023-05-22T14:57:29.565Z,101293.38
2023-05-22T14:59:31.732Z,101289.81
2023-05-22T15:01:33.328Z,101289.81
2023-05-22T15:03:34.963Z,101293.47
2023-05-22T15:05:36.415Z,101284.41
2023-05-22T15:09:42.627Z,101287.97
2023-05-22T15:11:46.800Z,101278.34
2023-05-22T15:13:48.789Z,101288.09
2023-05-22T15:15:50.389Z,101276.63
2023-05-22T15:17:51.924Z,101274.78
2023-05-22T15:19:53.409Z,101276.75
2023-05-22T15:21:57.307Z,101271.38
2023-05-22T15:24:02.301Z,101276.88
2023-05-22T15:26:04.022Z,101283.00
2023-05-22T15:28:08.332Z,101272.97
2023-05-22T15:30:10.274Z,101273.81
2023-05-22T15:32:11.976Z,101271.13
2023-05-22T15:34:13.551Z,101277.47
2023-05-22T15:36:15.105Z,101269.56
2023-05-22T15:38:16.652Z,101277.47
2023-05-22T15:40:22.400Z,101279.03
2023-05-22T15:42:24.611Z,101278.94
2023-05-22T15:44:26.406Z,101275.50
2023-05-22T15:46:28.054Z,101277.63
2023-05-22T15:48:32.261Z,101271.50
2023-05-22T15:50:34.369Z,101268.94
2023-05-22T15:52:36.231Z,101275.28
2023-05-22T15:54:37.858Z,101261.53
2023-05-22T15:56:39.753Z,101274.31
2023-05-22T15:58:41.249Z,101279.81
2023-05-22T16:00:42.941Z,101281.66
2023-05-22T16:02:44.636Z,101284.22
2023-05-22T16:04:46.268Z,101279.94
2023-05-22T16:06:47.896Z,101278.97
2023-05-22T16:08:49.431Z,101286.19
2023-05-22T16:10:50.984Z,101279.09
2023-05-22T16:12:52.581Z,101277.25
2023-05-22T16:14:59.975Z,101275.81
2023-05-22T16:17:02.167Z,101282.91
2023-05-22T16:19:03.808Z,101287.41
2023-05-22T16:21:05.656Z,101284.03
2023-05-22T16:23:07.320Z,101279.63
2023-05-22T16:25:09.134Z,101281.59
2023-05-22T16:27:10.746Z,101280.47
2023-05-22T16:29:12.289Z,101280.38
2023-05-22T16:31:18.957Z,101291.38
2023-05-22T16:33:20.965Z,101282.31
2023-05-22T16:35:22.582Z,101288.69
2023-05-22T16:37:24.478Z,101291.38
2023-05-22T16:39:26.981Z,101293.31
2023-05-22T16:41:28.501Z,101289.66
2023-05-22T16:43:30.034Z,101287.25
2023-05-22T16:45:31.604Z,101281.88
2023-05-22T16:47:33.283Z,101284.44
2023-05-22T16:49:34.900Z,101293.59
2023-05-22T16:51:36.484Z,101289.06
2023-05-22T16:53:38.633Z,101299.81
2023-05-22T16:55:40.506Z,101303.19
2023-05-22T16:57:43.211Z,101305.72
2023-05-22T16:59:44.802Z,101307.59
2023-05-22T17:01:46.895Z,101311.25
2023-05-22T17:03:48.474Z,101308.41
2023-05-22T17:05:51.837Z,101313.06
2023-05-22T17:07:53.330Z,101311.09
2023-05-22T17:09:54.809Z,101304.16
2023-05-22T17:11:56.354Z,101310.38
2023-05-22T17:13:57.916Z,101301.47
2023-05-22T17:15:59.528Z,101311.97
2023-05-22T17:18:01.234Z,101314.66
2023-05-22T17:20:06.077Z,101312.97
2023-05-22T17:22:07.744Z,101320.88
2023-05-22T17:24:12.641Z,101314.38
2023-05-22T17:26:15.594Z,101319.53
2023-05-22T17:28:17.411Z,101324.63
2023-05-22T17:30:18.948Z,101323.78
2023-05-22T17:32:20.541Z,101328.03
2023-05-22T17:34:22.526Z,101333.41
2023-05-22T17:36:24.137Z,101340.38
2023-05-22T17:38:25.778Z,101340.63
2023-05-22T17:40:40.550Z,101335.66
2023-05-22T17:42:46.674Z,101341.72
2023-05-22T17:44:48.419Z,101348.56
2023-05-22T17:46:49.893Z,101339.53
2023-05-22T17:48:55.221Z,101352.84
2023-05-22T17:50:56.800Z,101352.69
2023-05-22T17:52:58.600Z,101353.44
2023-05-22T17:55:00.246Z,101352.69
2023-05-22T17:57:04.186Z,101351.56
2023-05-22T17:59:06.967Z,101355.84
2023-05-22T18:01:08.641Z,101356.59
2023-05-22T18:03:10.274Z,101355.00
2023-05-22T18:05:11.973Z,101358.53
2023-05-22T18:07:13.626Z,101355.63
2023-05-22T18:09:15.150Z,101362.72
2023-05-22T18:11:16.682Z,101361.13
2023-05-22T18:13:19.611Z,101369.06
2023-05-22T18:15:21.193Z,101370.03
2023-05-22T18:17:23.227Z,101370.88
2023-05-22T18:19:24.807Z,101381.28
2023-05-22T18:21:26.549Z,101380.56
2023-05-22T18:23:28.233Z,101376.22
2023-05-22T18:25:29.691Z,101385.66
2023-05-22T18:27:31.450Z,101381.75
2023-05-22T18:29:33.068Z,101383.03
2023-05-22T18:31:34.634Z,101381.88
2023-05-22T18:33:36.142Z,101376.00
2023-05-22T18:35:38.080Z,101378.84
2023-05-22T18:37:39.532Z,101378.97
2023-05-22T18:39:41.145Z,101399.50
2023-05-22T18:41:42.606Z,101385.19
2023-05-22T18:43:44.134Z,101396.81
2023-05-22T18:45:45.673Z,101394.00
2023-05-22T18:47:47.382Z,101398.50
2023-05-22T18:49:49.009Z,101392.16
2023-05-22T18:51:50.883Z,101390.19
2023-05-22T18:53:52.399Z,101398.00
2023-05-22T18:55:54.261Z,101398.25
2023-05-22T18:57:56.025Z,101396.81
2023-05-22T18:59:57.824Z,101395.22
2023-05-22T19:01:59.298Z,101392.81
2023-05-22T19:04:01.006Z,101380.13
2023-05-22T19:06:02.651Z,101402.44
2023-05-22T19:08:04.799Z,101399.88
2023-05-22T19:10:08.090Z,101397.19
2023-05-22T19:12:09.883Z,101405.38
2023-05-22T19:14:11.756Z,101411.16
2023-05-22T19:16:13.679Z,101415.78
2023-05-22T19:18:15.899Z,101413.34
2023-05-22T19:20:17.465Z,101421.53
2023-05-22T19:22:18.905Z,101420.94
2023-05-22T19:24:20.765Z,101417.41
2023-05-22T19:26:22.344Z,101415.56
2023-05-22T19:28:24.582Z,101413.84
2023-05-22T19:30:26.164Z,101427.44
2023-05-22T19:32:27.728Z,101428.16
2023-05-22T19:34:29.217Z,101430.53
2023-05-22T19:36:31.460Z,101442.09
2023-05-22T19:38:33.085Z,101442.84
2023-05-22T19:40:34.726Z,101444.56
2023-05-22T19:42:37.154Z,101451.75
2023-05-22T19:44:38.594Z,101450.06
2023-05-22T19:46:40.291Z,101454.56
2023-05-22T19:48:41.822Z,101450.91
2023-05-22T19:50:43.490Z,101455.44
2023-05-22T19:52:45.277Z,101454.44
2023-05-22T19:54:46.792Z,101462.91
2023-05-22T19:56:48.278Z,101462.16
2023-05-22T19:58:49.946Z,101466.66
2023-05-22T20:00:51.739Z,101473.84
2023-05-22T20:02:53.516Z,101475.59
2023-05-22T20:04:55.181Z,101490.72
2023-05-22T20:06:58.668Z,101477.50
2023-05-22T20:09:01.625Z,101489.03
2023-05-22T20:11:03.244Z,101487.28
2023-05-22T20:13:05.196Z,101493.63
2023-05-22T20:15:06.998Z,101495.34
2023-05-22T20:17:08.488Z,101499.88
2023-05-22T20:19:10.375Z,101509.63
2023-05-22T20:21:12.035Z,101517.81
2023-05-22T20:23:13.509Z,101510.72
2023-05-22T20:25:15.052Z,101519.66
2023-05-22T20:27:16.760Z,101516.97
2023-05-22T20:29:18.385Z,101525.13
2023-05-22T20:31:19.974Z,101527.81
2023-05-22T20:33:21.541Z,101526.72
2023-05-22T20:35:23.175Z,101530.25
2023-05-22T20:37:24.729Z,101540.06
2023-05-22T20:39:26.656Z,101541.97
2023-05-22T20:41:28.461Z,101543.69
2023-05-22T20:43:30.754Z,101546.38
2023-05-22T20:45:32.535Z,101545.44
2023-05-22T20:47:34.662Z,101543.59
2023-05-22T20:49:36.165Z,101542.75
2023-05-22T20:51:37.917Z,101546.50
2023-05-22T20:53:39.409Z,101550.91
2023-05-22T20:55:41.200Z,101550.03
2023-05-22T20:57:43.143Z,101560.78
2023-05-22T20:59:44.686Z,101564.44
2023-05-22T21:01:46.480Z,101570.09
2023-05-22T21:03:49.856Z,101564.00
2023-05-22T21:05:51.387Z,101560.47
2023-05-22T21:07:52.835Z,101564.47
2023-05-22T21:09:54.512Z,101561.06
2023-05-22T21:11:56.076Z,101567.66
2023-05-22T21:13:58.083Z,101570.69
2023-05-22T21:15:59.553Z,101566.63
2023-05-22T21:18:01.083Z,101576.19
2023-05-22T21:20:04.271Z,101575.78
2023-05-22T21:22:05.735Z,101573.69
2023-05-22T21:24:08.710Z,101577.91
2023-05-22T21:26:10.366Z,101578.59
2023-05-22T21:28:12.105Z,101578.50
2023-05-22T21:30:14.933Z,101568.34
2023-05-22T21:32:16.348Z,101567.97
2023-05-22T21:34:17.994Z,101569.53
2023-05-22T21:36:19.630Z,101573.69
2023-05-22T21:38:21.104Z,101577.81
2023-05-22T21:40:22.882Z,101583.78
2023-05-22T21:42:26.185Z,101582.72
2023-05-22T21:44:27.824Z,101584.28
2023-05-22T21:46:29.455Z,101584.00
2023-05-22T21:48:30.968Z,101583.63
2023-05-22T21:50:32.601Z,101588.03
2023-05-22T21:52:34.030Z,101587.91
2023-05-22T21:54:35.484Z,101586.78
2023-05-22T21:56:38.495Z,101589.38
2023-05-22T21:58:40.950Z,101589.09
2023-05-22T22:00:42.544Z,101598.03
2023-05-22T22:02:44.101Z,101596.06
2023-05-22T22:04:45.849Z,101595.66
2023-05-22T22:06:47.334Z,101592.84
2023-05-22T22:08:49.013Z,101597.09
2023-05-22T22:10:50.789Z,101599.69
2023-05-22T22:12:52.304Z,101597.69
2023-05-22T22:14:53.906Z,101593.19
2023-05-22T22:16:56.350Z,101597.47
2023-05-22T22:18:58.014Z,101600.03
2023-05-22T22:21:02.027Z,101602.63
2023-05-22T22:23:03.559Z,101602.50
2023-05-22T22:25:05.425Z,101600.63
2023-05-22T22:27:07.173Z,101608.59
2023-05-22T22:29:08.735Z,101612.00
2023-05-22T22:31:10.349Z,101606.47
2023-05-22T22:33:11.989Z,101613.47
2023-05-22T22:35:13.549Z,101610.63
2023-05-22T22:37:15.073Z,101604.28
2023-05-22T22:39:16.751Z,101600.47
2023-05-22T22:41:18.438Z,101602.16
2023-05-22T22:43:19.995Z,101601.19
2023-05-22T22:45:21.536Z,101604.59
2023-05-22T22:47:23.170Z,101599.19
2023-05-22T22:49:24.612Z,101608.00
2023-05-22T22:51:26.677Z,101612.41
2023-05-22T22:53:28.521Z,101615.94
2023-05-22T22:55:30.078Z,101614.97
2023-05-22T22:57:31.745Z,101616.69
2023-05-22T22:59:35.379Z,101618.25
2023-05-22T23:01:37.067Z,101612.72
2023-05-22T23:03:38.576Z,101619.00
2023-05-22T23:05:40.402Z,101616.00
2023-05-22T23:07:44.280Z,101614.19
2023-05-22T23:09:45.820Z,101622.00
2023-05-22T23:11:48.727Z,101616.59
2023-05-22T23:13:50.539Z,101621.88
2023-05-22T23:15:52.199Z,101608.41
2023-05-22T23:17:53.691Z,101611.81
2023-05-22T23:19:55.208Z,101605.56